createdAt,value
2019-05-28T00:01:52.877Z,19.27
2019-05-28T00:04:23.772Z,21.07
2019-05-28T00:06:55.016Z,22.73
2019-05-28T00:09:26.405Z,26.83
2019-05-28T00:11:57.321Z,28.93
2019-05-28T00:14:27.993Z,33.07
2019-05-28T00:16:58.563Z,33.33
2019-05-28T00:19:29.220Z,34.50
2019-05-28T00:22:00.075Z,33.10
2019-05-28T00:24:31.737Z,31.87
2019-05-28T00:27:02.867Z,32.17
2019-05-28T00:29:33.819Z,29.00
2019-05-28T00:32:04.560Z,28.63
2019-05-28T00:34:36.197Z,30.07
2019-05-28T00:37:07.422Z,24.97
2019-05-28T00:39:38.214Z,25.77
2019-05-28T00:42:08.998Z,22.37
2019-05-28T00:44:39.723Z,20.23
2019-05-28T00:47:10.395Z,19.00
2019-05-28T00:49:41.083Z,18.63
2019-05-28T00:52:11.892Z,18.47
2019-05-28T00:54:42.861Z,18.13
2019-05-28T00:57:16.011Z,19.80
2019-05-28T00:59:47.892Z,19.83
2019-05-28T01:02:18.826Z,19.50
2019-05-28T01:04:49.547Z,19.53
2019-05-28T01:07:20.255Z,18.87
2019-05-28T01:09:50.909Z,18.57
2019-05-28T01:12:21.531Z,18.60
2019-05-28T01:14:52.192Z,22.87
2019-05-28T01:17:24.370Z,22.90
2019-05-28T01:19:55.004Z,36.47
2019-05-28T01:22:25.768Z,46.50
2019-05-28T01:24:57.095Z,41.77
2019-05-28T01:27:27.990Z,43.33
2019-05-28T01:29:58.631Z,44.43
2019-05-28T01:32:29.251Z,40.60
2019-05-28T01:34:59.934Z,33.30
2019-05-28T01:37:30.677Z,26.30
2019-05-28T01:40:01.473Z,22.23
2019-05-28T01:42:32.234Z,21.53
2019-05-28T01:45:03.026Z,18.07
2019-05-28T01:47:33.845Z,17.47
2019-05-28T01:50:07.819Z,16.07
2019-05-28T01:52:39.976Z,15.47
2019-05-28T01:55:11.003Z,15.93
2019-05-28T01:57:41.937Z,15.17
2019-05-28T02:00:13.429Z,14.67
2019-05-28T02:02:44.185Z,14.87
2019-05-28T02:05:16.520Z,14.80
2019-05-28T02:07:47.417Z,15.27
2019-05-28T02:10:19.685Z,15.07
2019-05-28T02:12:50.529Z,15.20
2019-05-28T02:15:23.070Z,14.43
2019-05-28T02:17:54.821Z,17.13
2019-05-28T02:20:25.752Z,17.90
2019-05-28T02:22:57.014Z,17.57
2019-05-28T02:25:27.850Z,17.93
2019-05-28T02:27:58.577Z,17.13
2019-05-28T02:30:29.517Z,16.53
2019-05-28T02:33:00.263Z,16.80
2019-05-28T02:35:31.869Z,17.50
2019-05-28T02:38:02.493Z,17.30
2019-05-28T02:40:33.333Z,19.50
2019-05-28T02:43:04.031Z,20.13
2019-05-28T02:45:34.760Z,18.23
2019-05-28T02:48:05.651Z,19.50
2019-05-28T02:50:47.808Z,20.83
2019-05-28T02:53:18.531Z,21.07
2019-05-28T02:55:49.853Z,22.07
2019-05-28T02:58:21.681Z,20.57
2019-05-28T03:00:54.308Z,21.13
2019-05-28T03:03:27.883Z,20.30
2019-05-28T03:05:59.278Z,20.20
2019-05-28T03:08:31.259Z,20.23
2019-05-28T03:11:04.141Z,19.87
2019-05-28T03:13:35.354Z,19.50
2019-05-28T03:16:08.071Z,17.40
2019-05-28T03:18:40.596Z,18.83
2019-05-28T03:21:12.507Z,19.47
2019-05-28T03:23:44.400Z,18.93
2019-05-28T03:26:16.670Z,19.40
2019-05-28T03:28:47.404Z,18.67
2019-05-28T03:31:18.227Z,19.87
2019-05-28T03:33:49.154Z,18.57
2019-05-28T03:36:22.362Z,18.80
2019-05-28T03:38:53.628Z,19.83
2019-05-28T03:41:24.380Z,18.70
2019-05-28T03:43:55.305Z,18.83
2019-05-28T03:46:26.954Z,19.80
2019-05-28T03:48:57.624Z,18.47
2019-05-28T03:51:28.361Z,19.37
2019-05-28T03:53:59.005Z,19.83
2019-05-28T03:56:29.722Z,18.33
2019-05-28T03:59:00.450Z,19.27
2019-05-28T04:01:31.324Z,18.97
2019-05-28T04:04:01.921Z,20.40
2019-05-28T04:06:32.877Z,20.70
2019-05-28T04:09:05.965Z,18.40
2019-05-28T04:11:44.629Z,18.17
2019-05-28T04:14:09.523Z,19.17
2019-05-28T04:16:40.384Z,17.73
2019-05-28T04:19:11.228Z,17.93
2019-05-28T04:21:41.817Z,17.77
2019-05-28T04:24:12.424Z,18.23
2019-05-28T04:26:43.123Z,16.70
2019-05-28T04:29:14.749Z,16.73
2019-05-28T04:31:45.652Z,16.47
2019-05-28T04:34:16.458Z,19.50
2019-05-28T04:36:47.138Z,19.30
2019-05-28T04:39:18.038Z,20.60
2019-05-28T04:41:48.694Z,20.90
2019-05-28T04:44:19.259Z,19.30
2019-05-28T04:46:50.136Z,18.70
2019-05-28T04:49:20.776Z,17.97
2019-05-28T04:51:51.594Z,17.97
2019-05-28T04:54:22.393Z,18.07
2019-05-28T04:56:53.251Z,16.93
2019-05-28T04:59:23.990Z,17.40
2019-05-28T05:01:54.801Z,16.63
2019-05-28T05:04:25.729Z,16.20
2019-05-28T05:06:56.436Z,16.27
2019-05-28T05:09:27.177Z,16.00
2019-05-28T05:11:57.864Z,16.07
2019-05-28T05:14:28.615Z,15.30
2019-05-28T05:16:59.244Z,15.47
2019-05-28T05:19:29.957Z,16.13
2019-05-28T05:22:01.051Z,16.17
2019-05-28T05:24:32.275Z,16.20
2019-05-28T05:27:02.964Z,15.53
2019-05-28T05:29:33.794Z,14.93
2019-05-28T05:32:04.571Z,15.60
2019-05-28T05:34:35.210Z,16.73
2019-05-28T05:37:06.614Z,17.27
2019-05-28T05:39:37.255Z,15.67
2019-05-28T05:42:08.075Z,17.03
2019-05-28T05:44:39.861Z,15.40
2019-05-28T05:47:11.653Z,15.97
2019-05-28T05:49:42.748Z,16.90
2019-05-28T05:52:13.495Z,15.80
2019-05-28T05:54:44.453Z,15.43
2019-05-28T05:57:15.401Z,15.77
2019-05-28T05:59:46.211Z,15.63
2019-05-28T06:02:19.311Z,15.20
2019-05-28T06:04:50.127Z,15.47
2019-05-28T06:07:20.795Z,14.87
2019-05-28T06:09:51.377Z,15.60
2019-05-28T06:12:22.380Z,16.00
2019-05-28T06:14:53.332Z,15.53
2019-05-28T06:17:24.048Z,14.53
2019-05-28T06:19:54.946Z,14.20
2019-05-28T06:22:25.915Z,15.03
2019-05-28T06:24:56.937Z,14.27
2019-05-28T06:27:27.674Z,14.70
2019-05-28T06:29:58.531Z,13.20
2019-05-28T06:32:32.840Z,13.10
2019-05-28T06:35:01.809Z,15.10
2019-05-28T06:37:51.708Z,14.57
2019-05-28T06:40:25.701Z,14.13
2019-05-28T06:42:56.666Z,14.10
2019-05-28T06:45:29.305Z,15.17
2019-05-28T06:51:17.410Z,14.70
2019-05-28T06:53:48.613Z,15.10
2019-05-28T06:56:31.431Z,16.87
2019-05-28T07:02:38.798Z,15.40
2019-05-28T07:11:31.281Z,13.13
2019-05-28T07:14:01.962Z,14.27
2019-05-28T07:16:33.052Z,13.70
2019-05-28T07:19:03.939Z,14.00
2019-05-28T07:21:34.823Z,13.47
2019-05-28T07:24:05.930Z,14.50
2019-05-28T07:26:36.933Z,13.40
2019-05-28T07:29:09.307Z,12.17
2019-05-28T07:31:41.424Z,11.30
2019-05-28T07:34:12.071Z,11.03
2019-05-28T07:36:43.094Z,11.90
2019-05-28T07:39:14.872Z,11.50
2019-05-28T07:41:45.684Z,10.20
2019-05-28T07:44:16.645Z,10.33
2019-05-28T07:46:47.550Z,9.80
2019-05-28T07:49:18.667Z,9.63
2019-05-28T07:51:49.534Z,8.50
2019-05-28T07:54:20.457Z,8.10
2019-05-28T07:56:51.327Z,8.27
2019-05-28T07:59:23.250Z,8.03
2019-05-28T08:01:53.954Z,8.87
2019-05-28T08:04:24.835Z,9.13
2019-05-28T08:06:57.804Z,8.97
2019-05-28T08:09:28.750Z,8.87
2019-05-28T08:11:59.695Z,8.53
2019-05-28T08:14:30.434Z,8.80
2019-05-28T08:17:01.096Z,7.93
2019-05-28T08:19:31.997Z,9.23
2019-05-28T08:22:03.009Z,9.27
2019-05-28T08:24:33.991Z,8.87
2019-05-28T08:27:05.054Z,8.93
2019-05-28T08:29:35.988Z,9.07
2019-05-28T08:32:06.859Z,8.83
2019-05-28T08:34:38.170Z,7.90
2019-05-28T08:37:09.309Z,8.27
2019-05-28T08:39:39.971Z,8.07
2019-05-28T08:42:10.732Z,7.40
2019-05-28T08:44:41.620Z,8.10
2019-05-28T08:47:12.463Z,8.60
2019-05-28T08:49:43.213Z,8.73
2019-05-28T08:52:13.921Z,8.47
2019-05-28T08:54:44.734Z,8.00
2019-05-28T08:57:15.631Z,8.30
2019-05-28T08:59:48.087Z,9.50
2019-05-28T09:02:27.743Z,9.27
2019-05-28T09:04:51.322Z,9.23
2019-05-28T09:07:21.978Z,8.70
2019-05-28T09:09:52.697Z,9.77
2019-05-28T09:12:23.412Z,8.83
2019-05-28T09:14:56.516Z,8.60
2019-05-28T09:17:26.932Z,9.27
2019-05-28T09:19:57.629Z,9.73
2019-05-28T09:22:28.434Z,9.27
2019-05-28T09:24:59.361Z,10.03
2019-05-28T09:27:30.236Z,9.73
2019-05-28T09:30:01.045Z,9.97
2019-05-28T09:32:31.910Z,9.97
2019-05-28T09:35:03.462Z,9.43
2019-05-28T09:37:34.381Z,11.60
2019-05-28T09:40:09.127Z,10.13
2019-05-28T09:42:40.085Z,10.90
2019-05-28T09:45:22.369Z,11.17
2019-05-28T09:47:44.394Z,10.50
2019-05-28T09:50:29.809Z,10.27
2019-05-28T09:52:54.334Z,10.10
2019-05-28T09:55:20.889Z,10.47
2019-05-28T09:57:52.591Z,11.10
2019-05-28T10:00:24.881Z,11.50
2019-05-28T10:02:55.654Z,10.23
2019-05-28T10:05:26.465Z,11.00
2019-05-28T10:07:57.254Z,11.53
2019-05-28T10:10:28.080Z,10.93
2019-05-28T10:12:59.177Z,10.90
2019-05-28T10:15:30.324Z,12.03
2019-05-28T10:18:00.962Z,10.43
2019-05-28T10:20:32.317Z,10.60
2019-05-28T10:23:03.132Z,9.73
2019-05-28T10:25:33.865Z,9.60
2019-05-28T10:28:04.788Z,9.63
2019-05-28T10:30:35.535Z,8.70
2019-05-28T10:33:06.281Z,9.27
2019-05-28T10:35:37.154Z,9.20
2019-05-28T10:38:14.513Z,8.60
2019-05-28T10:40:40.304Z,8.77
2019-05-28T10:43:11.158Z,8.77
2019-05-28T10:45:41.906Z,9.43
2019-05-28T10:48:12.807Z,8.47
2019-05-28T10:50:43.570Z,9.50
2019-05-28T10:53:14.251Z,8.73
2019-05-28T10:55:45.017Z,9.10
2019-05-28T10:58:16.046Z,8.77
2019-05-28T11:00:46.789Z,8.30
2019-05-28T11:03:17.712Z,8.07
2019-05-28T11:05:48.603Z,7.70
2019-05-28T11:08:19.300Z,7.50
2019-05-28T11:10:51.463Z,8.47
2019-05-28T11:13:22.246Z,8.13
2019-05-28T11:15:52.917Z,7.00
2019-05-28T11:18:25.394Z,5.47
2019-05-28T11:20:56.225Z,6.60
2019-05-28T11:23:26.929Z,6.50
2019-05-28T11:25:57.850Z,6.50
2019-05-28T11:28:28.547Z,7.90
2019-05-28T11:30:59.278Z,7.97
2019-05-28T11:33:30.017Z,6.47
2019-05-28T11:36:00.830Z,6.80
2019-05-28T11:38:31.600Z,6.03
2019-05-28T11:41:02.324Z,5.50
2019-05-28T11:43:33.133Z,5.20
2019-05-28T11:46:03.912Z,5.07
2019-05-28T11:48:34.450Z,5.10
2019-05-28T11:51:08.305Z,4.40
2019-05-28T11:53:39.319Z,4.57
2019-05-28T11:56:10.115Z,4.00
2019-05-28T11:58:41.034Z,4.70
2019-05-28T12:01:11.877Z,5.27
2019-05-28T12:03:42.837Z,4.43
2019-05-28T12:06:13.506Z,3.87
2019-05-28T12:08:44.225Z,4.30
2019-05-28T12:11:14.855Z,4.60
2019-05-28T12:13:45.460Z,4.47
2019-05-28T12:16:16.324Z,4.97
2019-05-28T12:18:46.965Z,4.63
2019-05-28T12:21:17.624Z,4.13
2019-05-28T12:23:49.149Z,3.90
2019-05-28T12:26:19.893Z,4.23
2019-05-28T12:28:52.007Z,4.57
2019-05-28T12:31:22.830Z,4.50
2019-05-28T12:33:53.780Z,4.70
2019-05-28T12:36:24.792Z,4.23
2019-05-28T12:38:55.928Z,4.63
2019-05-28T12:41:27.852Z,4.60
2019-05-28T12:43:58.638Z,4.87
2019-05-28T12:46:29.491Z,4.63
2019-05-28T12:49:00.377Z,4.13
2019-05-28T12:51:31.645Z,4.83
2019-05-28T12:54:02.793Z,5.00
2019-05-28T12:56:33.446Z,4.70
2019-05-28T12:59:04.396Z,5.03
2019-05-28T13:01:36.237Z,5.00
2019-05-28T13:04:07.252Z,3.80
2019-05-28T13:06:39.695Z,5.07
2019-05-28T13:09:10.689Z,6.00
2019-05-28T13:11:41.521Z,5.53
2019-05-28T13:14:13.825Z,5.30
2019-05-28T13:16:44.642Z,4.30
2019-05-28T13:19:15.415Z,5.70
2019-05-28T13:21:46.374Z,5.13
2019-05-28T13:24:18.276Z,6.53
2019-05-28T13:26:49.457Z,5.70
2019-05-28T13:29:20.228Z,6.40
2019-05-28T13:31:51.055Z,7.90
2019-05-28T13:34:21.792Z,5.83
2019-05-28T13:36:52.418Z,5.67
2019-05-28T13:39:23.269Z,5.63
2019-05-28T13:41:54.156Z,4.30
2019-05-28T13:44:24.878Z,4.90
2019-05-28T13:46:55.550Z,4.97
2019-05-28T13:49:27.879Z,4.53
2019-05-28T13:52:11.413Z,4.37
2019-05-28T13:54:31.510Z,4.40
2019-05-28T13:57:02.321Z,4.20
2019-05-28T13:59:43.105Z,4.20
2019-05-28T14:02:13.894Z,4.60
2019-05-28T14:04:46.120Z,3.50
2019-05-28T14:07:17.022Z,3.93
2019-05-28T14:09:50.321Z,3.10
2019-05-28T14:12:23.759Z,3.60
2019-05-28T14:14:54.750Z,3.63
2019-05-28T14:17:25.542Z,3.93
2019-05-28T14:19:56.377Z,3.37
2019-05-28T14:22:33.968Z,3.50
2019-05-28T14:25:00.369Z,2.97
2019-05-28T14:27:31.118Z,3.63
2019-05-28T14:30:01.724Z,3.70
2019-05-28T14:32:32.356Z,4.10
2019-05-28T14:35:03.174Z,4.93
2019-05-28T14:37:33.808Z,4.90
2019-05-28T14:40:06.903Z,4.60
2019-05-28T14:42:38.603Z,3.70
2019-05-28T14:45:10.570Z,4.23
2019-05-28T14:47:41.221Z,3.70
2019-05-28T14:50:13.907Z,4.17
2019-05-28T14:52:44.819Z,4.07
2019-05-28T14:55:16.169Z,4.00
2019-05-28T14:57:46.964Z,3.30
2019-05-28T15:00:19.628Z,3.80
2019-05-28T15:02:51.862Z,4.10
2019-05-28T15:05:23.973Z,4.00
2019-05-28T15:07:54.981Z,3.13
2019-05-28T15:10:25.820Z,3.20
2019-05-28T15:12:56.695Z,3.10
2019-05-28T15:15:35.886Z,3.10
2019-05-28T15:18:00.831Z,3.17
2019-05-28T15:20:32.109Z,3.37
2019-05-28T15:23:07.403Z,2.90
2019-05-28T15:25:38.117Z,3.57
2019-05-28T15:28:09.006Z,3.60
2019-05-28T15:30:42.624Z,3.33
2019-05-28T15:33:12.438Z,3.30
2019-05-28T15:35:45.780Z,3.33
2019-05-28T15:38:16.816Z,3.27
2019-05-28T15:40:47.656Z,3.13
2019-05-28T15:43:19.682Z,3.07
2019-05-28T15:45:50.905Z,3.33
2019-05-28T15:48:22.399Z,3.23
2019-05-28T15:50:54.028Z,2.40
2019-05-28T15:53:25.424Z,2.43
2019-05-28T15:55:56.603Z,3.77
2019-05-28T15:58:28.118Z,3.53
2019-05-28T16:00:58.977Z,2.97
2019-05-28T16:03:30.483Z,2.57
2019-05-28T16:06:01.460Z,2.60
2019-05-28T16:08:32.506Z,2.27
2019-05-28T16:11:03.459Z,2.37
2019-05-28T16:13:34.301Z,2.27
2019-05-28T16:16:07.776Z,2.37
2019-05-28T16:18:40.557Z,2.50
2019-05-28T16:21:11.534Z,2.60
2019-05-28T16:23:42.415Z,2.50
2019-05-28T16:26:13.592Z,2.30
2019-05-28T16:28:44.348Z,2.77
2019-05-28T16:31:15.785Z,2.60
2019-05-28T16:33:46.892Z,2.50
2019-05-28T16:36:17.687Z,2.43
2019-05-28T16:38:49.858Z,2.47
2019-05-28T16:41:20.548Z,2.73
2019-05-28T16:43:52.291Z,2.50
2019-05-28T16:46:24.238Z,3.90
2019-05-28T16:48:55.309Z,4.00
2019-05-28T16:51:26.182Z,2.50
2019-05-28T16:53:58.174Z,2.80
2019-05-28T16:56:28.809Z,2.83
2019-05-28T16:59:00.492Z,3.13
2019-05-28T17:01:32.541Z,2.70
2019-05-28T17:04:03.880Z,4.27
2019-05-28T17:06:38.024Z,5.53
2019-05-28T17:09:11.619Z,5.40
2019-05-28T17:11:43.721Z,4.00
2019-05-28T17:14:15.207Z,2.73
2019-05-28T17:16:46.513Z,4.57
2019-05-28T17:19:17.620Z,6.03
2019-05-28T17:21:53.751Z,5.27
2019-05-28T17:24:30.253Z,3.50
2019-05-28T17:27:01.355Z,3.23
2019-05-28T17:29:32.511Z,4.50
2019-05-28T17:32:03.382Z,2.77
2019-05-28T17:34:34.324Z,3.00
2019-05-28T17:37:05.696Z,3.33
2019-05-28T17:39:37.473Z,3.07
2019-05-28T17:42:08.882Z,2.87
2019-05-28T17:44:40.928Z,3.23
2019-05-28T17:47:12.215Z,3.10
2019-05-28T17:49:44.802Z,3.17
2019-05-28T17:52:15.736Z,2.97
2019-05-28T17:54:46.647Z,3.13
2019-05-28T17:57:18.737Z,3.30
2019-05-28T17:59:50.512Z,3.40
2019-05-28T18:02:22.559Z,3.63
2019-05-28T18:04:56.384Z,3.77
2019-05-28T18:07:27.978Z,3.27
2019-05-28T18:09:59.400Z,3.80
2019-05-28T18:12:30.913Z,3.10
2019-05-28T18:15:05.899Z,3.97
2019-05-28T18:17:37.046Z,4.00
2019-05-28T18:20:09.328Z,3.30
2019-05-28T18:22:41.778Z,4.00
2019-05-28T18:25:12.783Z,3.47
2019-05-28T18:27:44.687Z,3.63
2019-05-28T18:30:17.519Z,3.10
2019-05-28T18:32:49.314Z,3.80
2019-05-28T18:35:23.227Z,3.57
2019-05-28T18:38:02.992Z,4.57
2019-05-28T18:40:28.545Z,4.17
2019-05-28T18:43:03.357Z,4.27
2019-05-28T18:45:36.385Z,3.70
2019-05-28T18:48:08.463Z,4.13
2019-05-28T18:50:39.519Z,3.50
2019-05-28T18:53:10.436Z,4.00
2019-05-28T18:55:43.224Z,5.00
2019-05-28T18:58:15.310Z,4.03
2019-05-28T19:00:46.407Z,4.23
2019-05-28T19:03:17.174Z,4.87
2019-05-28T19:05:49.794Z,4.60
2019-05-28T19:08:21.031Z,3.70
2019-05-28T19:10:54.525Z,3.80
2019-05-28T19:13:25.499Z,3.47
2019-05-28T19:15:59.362Z,3.10
2019-05-28T19:18:30.977Z,3.57
2019-05-28T19:21:02.719Z,4.17
2019-05-28T19:23:34.738Z,3.27
2019-05-28T19:26:06.187Z,3.90
2019-05-28T19:28:37.520Z,3.17
2019-05-28T19:31:08.384Z,3.77
2019-05-28T19:33:39.051Z,3.13
2019-05-28T19:36:12.005Z,3.27
2019-05-28T19:38:45.871Z,4.07
2019-05-28T19:41:17.361Z,4.37
2019-05-28T19:43:48.460Z,3.37
2019-05-28T19:46:19.773Z,3.33
2019-05-28T19:48:51.525Z,3.80
2019-05-28T19:51:23.378Z,3.20
2019-05-28T19:53:57.093Z,3.23
2019-05-28T19:56:28.214Z,3.47
2019-05-28T19:58:59.073Z,4.37
2019-05-28T20:01:31.518Z,3.53
2019-05-28T20:04:03.819Z,3.30
2019-05-28T20:06:35.205Z,4.17
2019-05-28T20:09:08.659Z,3.97
2019-05-28T20:11:39.959Z,3.60
2019-05-28T20:14:13.548Z,3.37
2019-05-28T20:16:47.768Z,3.60
2019-05-28T20:19:19.448Z,3.57
2019-05-28T20:21:58.807Z,3.90
2019-05-28T20:24:32.672Z,4.57
2019-05-28T20:27:04.670Z,3.87
2019-05-28T20:29:35.651Z,3.97
2019-05-28T20:32:09.362Z,4.20
2019-05-28T20:34:41.103Z,4.20
2019-05-28T20:37:13.783Z,5.27
2019-05-28T20:39:45.162Z,4.50
2019-05-28T20:42:26.900Z,4.70
2019-05-28T20:44:50.342Z,4.43
2019-05-28T20:47:23.781Z,5.10
2019-05-28T20:49:55.689Z,4.70
2019-05-28T20:52:29.674Z,4.63
2019-05-28T20:55:08.256Z,5.07
2019-05-28T20:57:41.085Z,4.90
2019-05-28T21:00:13.285Z,5.20
2019-05-28T21:02:44.349Z,4.40
2019-05-28T21:05:18.516Z,4.80
2019-05-28T21:07:54.362Z,4.87
2019-05-28T21:10:25.943Z,6.30
2019-05-28T21:13:00.519Z,4.83
2019-05-28T21:15:32.890Z,4.90
2019-05-28T21:18:04.564Z,4.17
2019-05-28T21:20:36.027Z,4.97
2019-05-28T21:23:08.590Z,4.90
2019-05-28T21:25:40.934Z,4.17
2019-05-28T21:28:14.001Z,4.80
2019-05-28T21:30:45.972Z,4.33
2019-05-28T21:33:17.537Z,4.60
2019-05-28T21:35:48.588Z,4.20
2019-05-28T21:38:20.264Z,4.90
2019-05-28T21:40:53.493Z,4.93
2019-05-28T21:43:27.330Z,4.77
2019-05-28T21:46:00.341Z,4.80
2019-05-28T21:48:33.693Z,4.60
2019-05-28T21:51:05.546Z,4.20
2019-05-28T21:53:37.106Z,4.20
2019-05-28T21:56:08.145Z,4.80
2019-05-28T21:58:39.495Z,4.13
2019-05-28T22:01:16.778Z,4.27
2019-05-28T22:03:48.606Z,5.33
2019-05-28T22:06:19.942Z,4.73
2019-05-28T22:08:50.859Z,6.37
2019-05-28T22:11:22.144Z,5.83
2019-05-28T22:13:53.032Z,4.57
2019-05-28T22:16:24.918Z,6.30
2019-05-28T22:18:56.744Z,4.60
2019-05-28T22:21:27.808Z,5.40
2019-05-28T22:24:00.526Z,5.47
2019-05-28T22:26:32.635Z,4.93
2019-05-28T22:29:04.205Z,4.63
2019-05-28T22:31:35.148Z,4.97
2019-05-28T22:34:07.298Z,5.13
2019-05-28T22:36:38.816Z,5.97
2019-05-28T22:39:10.045Z,4.90
2019-05-28T22:41:42.437Z,4.60
2019-05-28T22:44:13.462Z,4.37
2019-05-28T22:46:44.149Z,4.33
2019-05-28T22:49:15.717Z,4.90
2019-05-28T22:51:46.392Z,4.83
2019-05-28T22:54:17.470Z,4.70
2019-05-28T22:56:48.619Z,5.00
2019-05-28T22:59:19.487Z,4.87
2019-05-28T23:01:50.475Z,4.03
2019-05-28T23:04:21.405Z,5.03
2019-05-28T23:06:52.404Z,4.70
2019-05-28T23:09:23.433Z,4.90
2019-05-28T23:11:54.359Z,3.70
2019-05-28T23:14:25.637Z,3.70
2019-05-28T23:16:56.677Z,4.33
2019-05-28T23:19:27.528Z,4.33
2019-05-28T23:21:58.387Z,5.07
2019-05-28T23:24:29.328Z,3.97
2019-05-28T23:27:01.299Z,4.60
2019-05-28T23:29:32.519Z,4.53
2019-05-28T23:32:03.973Z,4.00
2019-05-28T23:34:34.836Z,4.47
2019-05-28T23:37:06.380Z,4.97
2019-05-28T23:39:38.465Z,3.93
2019-05-28T23:42:09.388Z,4.20
2019-05-28T23:44:40.316Z,3.40
2019-05-28T23:47:12.226Z,4.00
2019-05-28T23:49:43.677Z,3.17
2019-05-28T23:52:15.448Z,2.53
2019-05-28T23:54:46.428Z,3.30
2019-05-28T23:57:18.147Z,3.13
2019-05-28T23:59:49.117Z,2.87
